Huvudsida
METAR-TAF:

METAR-TAF

Flygplatser :

Ninoy Aquinos internationella flygplats

Manila, Filippinerna

latitud: 14-31N, longitud: 121-00E, höjd: 14 m

Aktuellt väderrapport

Denna rapport gjordes för 41 minuter sedan, klockan 13:00 UTC
Vind 7 kt från ost/sydost, varierande mellan ost och syd/sydost
Temperatur 31°C
Fuktighet 66%
Tryck 1010 hPa
Sikt 10 km eller mer
Få moln på en höjd av 2500 ft

METAR: RPLL 221300Z 12007KT 080V150 9999 FEW025 31/24 Q1010 NOSIG RMK A2983

Tid: 21:41 (13:41 UTC)

Väderprognos

Denna rapport gjordes för 2 timmar och 41 minuter sedan, klockan 11:00 UTC
Prognos gäller från 22 kl. 12 UTC till 23 kl. 18 UTC
Vind 11 kt från ost/sydost
Sikt 10 km eller mer
Få moln på en höjd av 2500 ft
Temporärt
från 22 kl. 19 UTC till 22 kl. 23 UTC
Vind 6 kt från ost
Temporärt
från 23 kl. 05 UTC till 23 kl. 11 UTC
Vind 14 kt från sydost

TAF: RPLL 221100Z 2212/2318 12011KT 9999 FEW025 TX37/2306Z TN28/2221Z TEMPO 2219/2223 08006KT TEMPO 2305/2311 13014KT

Aktuella väderrapporter och prognoser från 4000 flygplatser (METAR- och TAF-rapporter).

De tillgängliga stationerna syns som gula och röda prickar på kartan.

För musen över prickarna för att se namnen på stationerna.

Klicka sedan för att få väderrapporter och prognoser.

För att ändra kartan: Klicka på de gröna knapparna med ett svart kors på för att zooma in; den gröna knappen med ett streck på för att zooma ut; eller på de gröna pilarna för angränsande kartor.


METAR-TAF: